createdAt,value
2022-11-22T00:02:10.313Z,265.30
2022-11-22T00:04:45.047Z,282.80
2022-11-22T00:07:18.536Z,263.40
2022-11-22T00:09:51.764Z,287.90
2022-11-22T00:12:24.923Z,316.50
2022-11-22T00:14:57.680Z,442.80
2022-11-22T00:17:31.331Z,437.10
2022-11-22T00:20:03.868Z,385.30
2022-11-22T00:22:43.974Z,420.40
2022-11-22T00:25:17.209Z,333.90
2022-11-22T00:27:50.607Z,377.90
2022-11-22T00:30:23.841Z,361.00
2022-11-22T00:32:57.125Z,351.50
2022-11-22T00:35:31.443Z,356.20
2022-11-22T00:38:05.647Z,383.30
2022-11-22T00:40:40.687Z,353.70
2022-11-22T00:43:14.476Z,306.30
2022-11-22T00:45:50.708Z,291.20
2022-11-22T00:48:24.924Z,282.30
2022-11-22T00:50:59.689Z,271.10
2022-11-22T00:53:33.206Z,288.50
2022-11-22T00:56:06.786Z,306.30
2022-11-22T00:58:41.090Z,278.20
2022-11-22T01:01:17.307Z,285.90
2022-11-22T01:03:51.934Z,280.50
2022-11-22T01:06:24.974Z,295.20
2022-11-22T01:08:56.886Z,315.20
2022-11-22T01:11:28.733Z,288.80
2022-11-22T01:14:00.933Z,250.20
2022-11-22T01:16:33.444Z,231.90
2022-11-22T01:19:06.410Z,222.20
2022-11-22T01:21:38.691Z,227.50
2022-11-22T01:24:11.422Z,280.20
2022-11-22T01:26:45.086Z,265.20
2022-11-22T01:29:17.860Z,274.20
2022-11-22T01:31:51.076Z,227.80
2022-11-22T01:34:23.100Z,258.50
2022-11-22T01:36:56.272Z,237.20
2022-11-22T01:39:29.709Z,307.60
2022-11-22T01:42:03.175Z,229.30
2022-11-22T01:44:40.631Z,232.30
2022-11-22T01:47:15.322Z,203.50
2022-11-22T01:49:50.716Z,212.40
2022-11-22T01:52:25.041Z,183.70
2022-11-22T01:55:02.047Z,187.10
2022-11-22T01:57:37.676Z,184.70
2022-11-22T02:00:13.679Z,197.40
2022-11-22T02:02:47.824Z,179.60
2022-11-22T02:05:22.355Z,219.40
2022-11-22T02:07:59.279Z,189.50
2022-11-22T02:10:33.161Z,172.50
2022-11-22T02:13:07.650Z,176.80
2022-11-22T02:15:40.638Z,180.60
2022-11-22T02:18:13.280Z,162.30
2022-11-22T02:20:46.258Z,165.70
2022-11-22T02:23:24.591Z,160.40
2022-11-22T02:25:59.664Z,145.90
2022-11-22T02:28:33.780Z,147.60
2022-11-22T02:31:07.782Z,115.90
2022-11-22T02:33:43.275Z,126.80
2022-11-22T02:36:19.547Z,134.60
2022-11-22T02:38:53.005Z,120.50
2022-11-22T02:41:26.565Z,133.00
2022-11-22T02:43:59.447Z,118.10
2022-11-22T02:46:33.053Z,118.80
2022-11-22T02:49:10.231Z,130.90
2022-11-22T02:51:44.327Z,120.10
2022-11-22T02:54:17.111Z,133.10
2022-11-22T02:56:51.170Z,119.00
2022-11-22T02:59:23.862Z,145.40
2022-11-22T03:02:01.677Z,138.10
2022-11-22T03:04:38.983Z,118.80
2022-11-22T03:07:10.882Z,118.20
2022-11-22T03:09:42.980Z,112.40
2022-11-22T03:12:14.891Z,118.20
2022-11-22T03:14:46.977Z,109.40
2022-11-22T03:17:20.262Z,112.30
2022-11-22T03:19:53.596Z,115.00
2022-11-22T03:22:26.276Z,99.30
2022-11-22T03:25:00.039Z,108.00
2022-11-22T03:27:35.220Z,121.20
2022-11-22T03:30:10.348Z,112.40
2022-11-22T03:32:43.841Z,97.60
2022-11-22T03:35:18.829Z,109.80
2022-11-22T03:37:52.924Z,128.70
2022-11-22T03:40:24.839Z,123.10
2022-11-22T03:42:57.571Z,191.90
2022-11-22T03:45:30.788Z,261.70
2022-11-22T03:48:03.828Z,329.10
2022-11-22T03:50:37.922Z,237.10
2022-11-22T03:53:10.038Z,220.10
2022-11-22T03:55:42.272Z,166.00
2022-11-22T03:58:16.083Z,156.10
2022-11-22T04:00:50.984Z,172.80
2022-11-22T04:03:22.837Z,160.00
2022-11-22T04:05:56.426Z,219.70
2022-11-22T04:08:28.383Z,188.80
2022-11-22T04:11:01.486Z,161.00
2022-11-22T04:13:48.706Z,141.90
2022-11-22T04:16:20.761Z,145.90
2022-11-22T04:18:53.498Z,182.00
2022-11-22T04:21:36.224Z,359.70
2022-11-22T04:24:28.476Z,176.60
2022-11-22T04:27:01.400Z,180.60
2022-11-22T04:29:34.776Z,148.50
2022-11-22T04:32:25.387Z,124.10
2022-11-22T04:34:58.237Z,119.60
2022-11-22T04:37:32.293Z,107.80
2022-11-22T04:40:04.868Z,114.70
2022-11-22T04:42:55.613Z,106.30
2022-11-22T04:45:31.727Z,107.60
2022-11-22T04:48:06.505Z,96.00
2022-11-22T04:50:57.570Z,98.90
2022-11-22T04:53:32.742Z,96.70
2022-11-22T04:56:04.953Z,101.10
2022-11-22T04:58:40.329Z,94.50
2022-11-22T05:01:14.139Z,102.10
2022-11-22T05:03:47.510Z,103.70
2022-11-22T05:06:20.813Z,106.80
2022-11-22T05:08:52.817Z,113.50
2022-11-22T05:11:25.035Z,120.70
2022-11-22T05:13:57.318Z,125.40
2022-11-22T05:16:29.165Z,136.90
2022-11-22T05:19:01.535Z,139.00
2022-11-22T05:21:37.470Z,138.40
2022-11-22T05:24:10.857Z,145.90
2022-11-22T05:26:46.152Z,155.60
2022-11-22T05:29:19.601Z,159.00
2022-11-22T05:31:52.228Z,156.00
2022-11-22T05:34:23.983Z,165.90
2022-11-22T05:36:58.814Z,184.80
2022-11-22T05:39:30.839Z,203.20
2022-11-22T05:42:06.538Z,200.30
2022-11-22T05:44:42.873Z,194.00
2022-11-22T05:47:15.733Z,186.50
2022-11-22T05:49:49.322Z,183.30
2022-11-22T05:52:21.427Z,162.10
2022-11-22T05:54:53.298Z,150.80
2022-11-22T05:57:26.297Z,138.00
2022-11-22T05:59:59.468Z,135.60
2022-11-22T06:02:35.640Z,168.60
2022-11-22T06:05:10.117Z,163.20
2022-11-22T06:07:44.973Z,150.70
2022-11-22T06:10:17.443Z,150.60
2022-11-22T06:12:54.155Z,140.70
2022-11-22T06:15:26.156Z,142.40
2022-11-22T06:17:59.824Z,165.30
2022-11-22T06:20:32.974Z,495.10
2022-11-22T06:23:09.907Z,395.30
2022-11-22T06:25:44.727Z,316.60
2022-11-22T06:28:16.739Z,249.90
2022-11-22T06:30:50.939Z,196.20
2022-11-22T06:33:24.499Z,216.20
2022-11-22T06:35:56.399Z,300.40
2022-11-22T06:38:29.230Z,277.30
2022-11-22T06:41:06.308Z,331.20
2022-11-22T06:43:48.017Z,207.00
2022-11-22T06:46:23.824Z,153.30
2022-11-22T06:48:56.100Z,229.00
2022-11-22T06:51:32.234Z,204.10
2022-11-22T06:54:04.502Z,308.00
2022-11-22T06:56:41.714Z,248.50
2022-11-22T06:59:14.241Z,113.70
2022-11-22T07:01:46.226Z,143.90
2022-11-22T07:04:19.381Z,157.00
2022-11-22T07:06:53.119Z,160.90
2022-11-22T07:09:26.555Z,173.30
2022-11-22T07:12:02.475Z,225.00
2022-11-22T07:14:34.606Z,235.40
2022-11-22T07:17:06.516Z,313.70
2022-11-22T07:19:38.680Z,248.20
2022-11-22T07:22:10.592Z,208.10
2022-11-22T07:24:43.790Z,171.40
2022-11-22T07:27:16.528Z,170.10
2022-11-22T07:29:48.857Z,194.30
2022-11-22T07:32:20.975Z,182.50
2022-11-22T07:34:53.502Z,125.70
2022-11-22T07:37:25.548Z,122.70
2022-11-22T07:39:57.434Z,148.00
2022-11-22T07:42:29.475Z,118.40
2022-11-22T07:45:02.511Z,129.40
2022-11-22T07:47:34.687Z,130.10
2022-11-22T07:50:09.176Z,155.60
2022-11-22T07:52:42.137Z,167.30
2022-11-22T07:55:14.841Z,121.00
2022-11-22T07:57:49.355Z,83.80
2022-11-22T08:00:22.387Z,86.80
2022-11-22T08:02:55.064Z,67.60
2022-11-22T08:05:27.703Z,72.50
2022-11-22T08:08:01.390Z,88.60
2022-11-22T08:10:33.688Z,62.60
2022-11-22T08:13:06.402Z,64.70
2022-11-22T08:15:38.671Z,55.40
2022-11-22T08:18:10.877Z,54.40
2022-11-22T08:20:43.380Z,68.40
2022-11-22T08:23:18.175Z,62.20
2022-11-22T08:25:50.928Z,64.40
2022-11-22T08:28:23.358Z,51.40
2022-11-22T08:31:02.283Z,53.80
2022-11-22T08:33:34.859Z,63.90
2022-11-22T08:36:10.599Z,65.80
2022-11-22T08:38:43.097Z,57.30
2022-11-22T08:41:15.268Z,63.60
2022-11-22T08:43:47.630Z,60.70
2022-11-22T08:46:20.962Z,52.50
2022-11-22T08:48:56.129Z,52.60
2022-11-22T08:51:28.340Z,107.40
2022-11-22T08:54:01.491Z,115.00
2022-11-22T08:56:35.118Z,77.10
2022-11-22T08:59:09.823Z,51.70
2022-11-22T09:01:43.627Z,80.60
2022-11-22T09:04:16.406Z,59.10
2022-11-22T09:09:45.299Z,47.60
2022-11-22T09:12:17.959Z,45.10
2022-11-22T09:14:50.540Z,47.40
2022-11-22T09:17:23.395Z,45.30
2022-11-22T09:19:57.475Z,50.60
2022-11-22T09:22:30.625Z,46.20
2022-11-22T09:25:05.508Z,40.10
2022-11-22T09:27:37.826Z,36.30
2022-11-22T09:30:14.826Z,33.50
2022-11-22T09:32:49.621Z,32.90
2022-11-22T09:35:21.665Z,33.10
2022-11-22T09:37:54.672Z,32.60
2022-11-22T09:40:27.089Z,35.80
2022-11-22T09:43:09.637Z,44.40
2022-11-22T09:46:06.642Z,30.70
2022-11-22T09:48:57.010Z,31.00
2022-11-22T09:51:34.059Z,34.60
2022-11-22T09:54:09.390Z,49.70
2022-11-22T09:56:43.017Z,34.70
2022-11-22T09:59:16.670Z,33.10
2022-11-22T10:01:51.925Z,32.70
2022-11-22T10:04:29.789Z,30.30
2022-11-22T10:07:05.048Z,35.40
2022-11-22T10:09:41.034Z,27.20
2022-11-22T10:12:19.722Z,28.20
2022-11-22T10:14:55.407Z,24.10
2022-11-22T10:17:43.913Z,22.00
2022-11-22T10:20:18.271Z,25.00
2022-11-22T10:22:53.496Z,21.60
2022-11-22T10:25:33.448Z,17.90
2022-11-22T10:28:21.847Z,19.80
2022-11-22T10:31:00.305Z,24.20
2022-11-22T10:33:44.201Z,70.70
2022-11-22T10:36:25.454Z,27.50
2022-11-22T10:39:07.392Z,103.20
2022-11-22T10:41:47.603Z,70.20
2022-11-22T10:44:30.939Z,51.40
2022-11-22T10:47:12.014Z,29.70
2022-11-22T10:49:51.456Z,22.00
2022-11-22T10:52:30.891Z,18.50
2022-11-22T10:55:19.183Z,19.20
2022-11-22T10:57:59.450Z,25.10
2022-11-22T11:00:33.613Z,10.50
2022-11-22T11:03:24.674Z,20.10
2022-11-22T11:11:50.783Z,15.20
2022-11-22T11:14:29.891Z,11.10
2022-11-22T11:17:04.362Z,11.20
2022-11-22T11:19:42.999Z,7.60
2022-11-22T11:22:42.676Z,10.30
2022-11-22T11:25:33.597Z,25.40
2022-11-22T11:28:08.867Z,11.80
2022-11-22T11:30:46.532Z,8.00
2022-11-22T11:33:35.319Z,8.70
2022-11-22T11:36:12.026Z,14.40
2022-11-22T11:38:57.660Z,10.50
2022-11-22T11:41:37.488Z,8.90
2022-11-22T11:44:32.173Z,17.10
2022-11-22T11:47:06.102Z,8.70
2022-11-22T11:49:39.052Z,9.80
2022-11-22T11:52:17.558Z,12.20
2022-11-22T11:54:52.105Z,8.40
2022-11-22T11:57:28.576Z,14.00
2022-11-22T12:00:06.555Z,8.10
2022-11-22T13:27:08.908Z,50.10
2022-11-22T13:29:43.044Z,31.70
2022-11-22T13:32:24.014Z,39.90
2022-11-22T13:35:26.707Z,24.60
2022-11-22T13:38:01.013Z,29.50
2022-11-22T13:40:35.076Z,46.70
2022-11-22T13:43:44.025Z,37.00
2022-11-22T13:46:45.632Z,25.90
2022-11-22T13:49:35.276Z,24.90
2022-11-22T13:52:34.998Z,22.20
2022-11-22T13:55:41.719Z,22.20
2022-11-22T13:58:56.348Z,22.00
2022-11-22T14:01:58.755Z,24.50
2022-11-22T14:04:38.462Z,24.90
2022-11-22T14:07:35.318Z,23.90
2022-11-22T14:10:29.158Z,24.40
2022-11-22T14:13:15.378Z,28.50
2022-11-22T14:15:59.433Z,24.90
2022-11-22T14:19:01.462Z,23.80
2022-11-22T14:21:50.304Z,27.90
2022-11-22T14:24:34.990Z,31.60
2022-11-22T14:27:14.462Z,21.20
2022-11-22T14:30:14.369Z,23.40
2022-11-22T14:32:51.726Z,22.40
2022-11-22T14:35:31.405Z,25.60
2022-11-22T14:38:30.913Z,29.70
2022-11-22T14:41:38.281Z,28.50
2022-11-22T14:44:14.973Z,28.40
2022-11-22T14:46:55.360Z,26.90
2022-11-22T14:49:38.680Z,35.90
2022-11-22T14:52:20.127Z,42.30
2022-11-22T14:54:55.790Z,33.30
2022-11-22T14:57:29.064Z,31.80
2022-11-22T15:00:11.820Z,31.00
2022-11-22T15:03:14.410Z,32.50
2022-11-22T15:09:13.691Z,38.60
2022-11-22T15:09:46.640Z,38.10
2022-11-22T15:12:43.320Z,35.20
2022-11-22T15:57:31.066Z,33.20
2022-11-22T16:00:10.323Z,31.90
2022-11-22T16:02:50.943Z,33.00
2022-11-22T16:06:05.266Z,35.40
2022-11-22T16:08:31.069Z,33.90
2022-11-22T16:11:07.850Z,32.70
2022-11-22T16:13:41.815Z,38.90
2022-11-22T16:16:28.948Z,30.60
2022-11-22T16:19:26.708Z,30.80
2022-11-22T16:22:03.738Z,29.70
2022-11-22T16:24:38.842Z,31.90
2022-11-22T16:27:17.026Z,32.70
2022-11-22T16:29:55.447Z,31.60
2022-11-22T16:32:27.722Z,30.50
2022-11-22T16:35:27.677Z,28.00
2022-11-22T16:37:54.285Z,29.80
2022-11-22T16:40:31.651Z,28.70
2022-11-22T16:43:09.499Z,28.20
2022-11-22T16:45:41.844Z,31.20
2022-11-22T16:48:31.250Z,32.60
2022-11-22T16:51:09.767Z,29.30
2022-11-22T16:53:46.282Z,29.50
2022-11-22T16:56:22.936Z,31.90
2022-11-22T16:58:58.260Z,31.40
2022-11-22T17:01:36.160Z,31.90
2022-11-22T17:04:12.020Z,35.30
2022-11-22T17:06:44.872Z,34.70
2022-11-22T17:09:17.408Z,34.20
2022-11-22T17:11:53.367Z,35.00
2022-11-22T17:14:29.408Z,34.50
2022-11-22T17:17:02.642Z,33.60
2022-11-22T17:19:53.569Z,34.00
2022-11-22T17:22:30.758Z,33.00
2022-11-22T17:25:03.653Z,44.70
2022-11-22T17:27:37.154Z,33.30
2022-11-22T17:30:12.975Z,31.90
2022-11-22T17:32:45.966Z,31.40
2022-11-22T17:35:18.901Z,29.80
2022-11-22T17:37:51.072Z,30.70
2022-11-22T17:40:25.325Z,27.90
2022-11-22T17:42:58.810Z,32.50
2022-11-22T17:45:33.164Z,33.10
2022-11-22T17:48:07.306Z,32.60
2022-11-22T17:50:39.223Z,32.30
2022-11-22T17:53:11.071Z,33.50
2022-11-22T17:56:09.351Z,35.50
2022-11-22T17:58:40.213Z,36.00
2022-11-22T18:01:14.342Z,37.70
2022-11-22T18:03:48.437Z,35.90
2022-11-22T18:06:26.498Z,35.20
2022-11-22T18:09:00.448Z,36.60
2022-11-22T18:11:34.129Z,38.00
2022-11-22T18:14:06.961Z,44.00
2022-11-22T18:16:41.147Z,33.40
2022-11-22T18:19:16.247Z,34.40
2022-11-22T18:21:49.476Z,32.90
2022-11-22T18:24:22.979Z,34.20
2022-11-22T18:26:56.494Z,34.80
2022-11-22T18:29:42.589Z,33.20
2022-11-22T18:32:16.194Z,32.10
2022-11-22T18:34:50.688Z,36.10
2022-11-22T18:37:25.775Z,38.70
2022-11-22T18:39:58.228Z,38.00
2022-11-22T18:42:34.693Z,40.20
2022-11-22T18:45:08.793Z,40.70
2022-11-22T18:47:45.779Z,39.10
2022-11-22T18:50:19.936Z,43.40
2022-11-22T18:52:52.134Z,38.30
2022-11-22T18:55:25.171Z,46.00
2022-11-22T18:57:59.440Z,32.70
2022-11-22T19:00:33.874Z,33.00
2022-11-22T19:03:11.148Z,37.00
2022-11-22T19:05:44.758Z,36.20
2022-11-22T19:08:17.912Z,35.90
2022-11-22T19:10:59.941Z,38.40
2022-11-22T19:13:38.466Z,38.40
2022-11-22T19:16:12.510Z,34.20
2022-11-22T19:18:46.736Z,35.70
2022-11-22T19:21:28.116Z,32.70
2022-11-22T19:24:05.493Z,36.50
2022-11-22T19:26:39.079Z,36.30
2022-11-22T19:29:13.639Z,32.40
2022-11-22T19:31:47.208Z,34.80
2022-11-22T19:34:19.575Z,36.80
2022-11-22T19:36:51.907Z,36.30
2022-11-22T19:39:28.361Z,36.10
2022-11-22T19:42:00.620Z,35.70
2022-11-22T19:44:38.006Z,38.10
2022-11-22T19:47:11.293Z,37.10
2022-11-22T19:49:43.619Z,38.30
2022-11-22T19:52:16.958Z,37.20
2022-11-22T19:54:50.610Z,36.00
2022-11-22T19:57:24.914Z,33.80
2022-11-22T20:00:00.050Z,33.00
2022-11-22T20:02:34.018Z,35.60
2022-11-22T20:05:12.544Z,33.30
2022-11-22T20:07:48.801Z,32.50
2022-11-22T20:10:22.004Z,33.80
2022-11-22T20:12:54.661Z,34.80
2022-11-22T20:15:29.192Z,36.10
2022-11-22T20:18:04.329Z,35.20
2022-11-22T20:20:36.252Z,34.10
2022-11-22T20:23:09.776Z,45.70
2022-11-22T20:25:43.815Z,36.10
2022-11-22T20:28:18.605Z,34.30
2022-11-22T20:30:53.004Z,36.10
2022-11-22T20:33:26.563Z,35.40
2022-11-22T20:36:06.974Z,42.10
2022-11-22T20:38:43.228Z,32.40
2022-11-22T20:41:18.914Z,42.00
2022-11-22T20:43:52.778Z,33.50
2022-11-22T20:46:26.804Z,33.80
2022-11-22T20:49:00.888Z,36.10
2022-11-22T20:51:36.045Z,39.20
2022-11-22T20:54:10.145Z,54.40
2022-11-22T20:56:43.034Z,68.90
2022-11-22T20:59:16.118Z,71.80
2022-11-22T21:01:49.327Z,48.70
2022-11-22T21:04:23.263Z,45.10
2022-11-22T21:06:58.319Z,45.00
2022-11-22T21:09:31.295Z,44.10
2022-11-22T21:12:03.991Z,46.70
2022-11-22T21:14:35.980Z,44.10
2022-11-22T21:17:37.165Z,44.10
2022-11-22T21:20:01.306Z,43.40
2022-11-22T21:22:35.090Z,43.20
2022-11-22T21:25:10.422Z,47.40
2022-11-22T21:27:43.957Z,46.10
2022-11-22T21:30:19.389Z,42.30
2022-11-22T21:32:52.176Z,42.60
2022-11-22T21:35:25.436Z,42.60
2022-11-22T21:38:01.218Z,41.10
2022-11-22T21:40:34.216Z,46.70
2022-11-22T21:43:10.547Z,45.40
2022-11-22T21:45:43.009Z,47.10
2022-11-22T21:48:17.702Z,48.30
2022-11-22T21:50:52.057Z,51.30
2022-11-22T21:53:27.717Z,63.70
2022-11-22T21:56:04.049Z,48.30
2022-11-22T21:58:36.680Z,48.60
2022-11-22T22:01:14.055Z,47.00
2022-11-22T22:03:48.417Z,48.60
2022-11-22T22:06:21.120Z,49.90
2022-11-22T22:08:53.320Z,48.60
2022-11-22T22:11:27.652Z,51.70
2022-11-22T22:13:59.834Z,49.70
2022-11-22T22:16:34.046Z,50.20
2022-11-22T22:19:10.497Z,54.90
2022-11-22T22:21:42.412Z,50.60
2022-11-22T22:24:17.015Z,49.80
2022-11-22T22:26:49.727Z,49.40
2022-11-22T22:29:23.397Z,49.30
2022-11-22T22:31:57.676Z,48.90
2022-11-22T22:34:32.459Z,48.60
2022-11-22T22:37:04.565Z,54.00
2022-11-22T22:39:39.100Z,47.50
2022-11-22T22:42:11.722Z,50.90
2022-11-22T22:44:44.563Z,49.80
2022-11-22T22:47:17.921Z,50.00
2022-11-22T22:49:51.480Z,49.30
2022-11-22T22:52:23.292Z,50.80
2022-11-22T22:54:56.007Z,50.30
2022-11-22T22:57:29.280Z,52.60
2022-11-22T23:00:02.610Z,51.80
2022-11-22T23:02:35.382Z,50.90
2022-11-22T23:05:10.369Z,50.10
2022-11-22T23:07:44.021Z,51.90
2022-11-22T23:10:16.983Z,52.20
2022-11-22T23:12:49.940Z,50.60
2022-11-22T23:15:43.875Z,51.20
2022-11-22T23:18:14.636Z,52.20
2022-11-22T23:20:50.119Z,54.40
2022-11-22T23:23:23.450Z,52.20
2022-11-22T23:26:03.149Z,50.60
2022-11-22T23:28:38.182Z,52.40
2022-11-22T23:31:15.666Z,52.00
2022-11-22T23:33:50.411Z,53.10
2022-11-22T23:36:25.314Z,54.40
2022-11-22T23:38:57.890Z,53.40
2022-11-22T23:41:33.480Z,53.80
2022-11-22T23:44:07.659Z,54.60
2022-11-22T23:46:40.894Z,53.80
2022-11-22T23:49:15.478Z,57.40
2022-11-22T23:51:50.402Z,55.00
2022-11-22T23:54:22.396Z,54.00
2022-11-22T23:56:56.535Z,55.10
2022-11-22T23:59:28.854Z,53.30
